createdAt,value
2018-01-06T00:00:39.336Z,930.55
2018-01-06T00:01:52.364Z,930.56
2018-01-06T00:03:05.391Z,930.57
2018-01-06T00:04:18.398Z,930.53
2018-01-06T00:05:31.441Z,930.54
2018-01-06T00:06:44.004Z,930.54
2018-01-06T00:07:56.982Z,930.59
2018-01-06T00:09:10.013Z,930.64
2018-01-06T00:10:23.070Z,930.67
2018-01-06T00:11:36.112Z,930.69
2018-01-06T00:12:49.179Z,930.69
2018-01-06T00:14:02.230Z,930.66
2018-01-06T00:15:15.224Z,930.68
2018-01-06T00:16:28.269Z,930.67
2018-01-06T00:17:41.308Z,930.67
2018-01-06T00:18:54.097Z,930.7
2018-01-06T00:20:06.906Z,930.71
2018-01-06T00:21:19.984Z,930.76
2018-01-06T00:22:33.049Z,930.78
2018-01-06T00:23:46.053Z,930.78
2018-01-06T00:24:59.057Z,930.8
2018-01-06T00:26:12.067Z,930.82
2018-01-06T00:27:25.148Z,930.87
2018-01-06T00:28:37.920Z,930.81
2018-01-06T00:29:50.912Z,930.83
2018-01-06T00:31:03.963Z,930.86
2018-01-06T00:32:16.995Z,930.86
2018-01-06T00:33:29.973Z,930.88
2018-01-06T00:34:43.048Z,930.92
2018-01-06T00:35:56.107Z,930.9
2018-01-06T00:37:09.146Z,930.94
2018-01-06T00:38:22.154Z,930.91
2018-01-06T00:39:34.728Z,930.96
2018-01-06T00:40:47.768Z,930.92
2018-01-06T00:42:00.837Z,930.97
2018-01-06T00:43:13.849Z,930.95
2018-01-06T00:44:26.964Z,930.99
2018-01-06T00:45:40.026Z,931.04
2018-01-06T00:46:53.013Z,931.01
2018-01-06T00:48:06.034Z,931
2018-01-06T00:49:19.027Z,931.02
2018-01-06T00:50:32.065Z,931.01
2018-01-06T00:51:45.062Z,930.99
2018-01-06T00:52:58.056Z,931.01
2018-01-06T00:54:11.125Z,931.06
2018-01-06T00:55:24.090Z,931.08
2018-01-06T00:56:37.129Z,931.04
2018-01-06T00:57:50.167Z,931.06
2018-01-06T00:59:03.288Z,931.09
2018-01-06T01:00:16.369Z,931.1
2018-01-06T01:01:29.419Z,931.13
2018-01-06T01:02:42.453Z,931.1
2018-01-06T01:03:55.022Z,931.15
2018-01-06T01:05:08.084Z,931.19
2018-01-06T01:06:20.847Z,931.23
2018-01-06T01:07:33.604Z,931.26
2018-01-06T01:08:46.668Z,931.25
2018-01-06T01:09:59.691Z,931.26
2018-01-06T01:11:12.661Z,931.22
2018-01-06T01:12:25.476Z,931.21
2018-01-06T01:15:41.582Z,931.21
2018-01-06T01:16:54.774Z,931.2
2018-01-06T01:18:07.923Z,931.18
2018-01-06T01:19:21.074Z,931.14
2018-01-06T01:20:34.190Z,931.14
2018-01-06T01:21:47.252Z,931.11
2018-01-06T01:23:00.365Z,931.07
2018-01-06T01:24:13.533Z,931.07
2018-01-06T01:25:26.195Z,931.09
2018-01-06T01:26:39.371Z,931.07
2018-01-06T01:27:52.528Z,931.07
2018-01-06T01:29:05.668Z,931.05
2018-01-06T01:30:18.795Z,931.07
2018-01-06T01:31:31.913Z,931.09
2018-01-06T01:32:45.053Z,931.09
2018-01-06T01:33:58.244Z,931.04
2018-01-06T01:35:10.932Z,931.03
2018-01-06T01:36:23.552Z,931
2018-01-06T01:37:36.757Z,931.01
2018-01-06T01:38:49.892Z,930.99
2018-01-06T01:40:03.014Z,930.98
2018-01-06T01:41:16.178Z,930.99
2018-01-06T01:42:29.358Z,931.02
2018-01-06T01:43:42.493Z,931.02
2018-01-06T01:44:55.634Z,931.02
2018-01-06T01:46:08.814Z,931.04
2018-01-06T01:47:21.934Z,931.06
2018-01-06T01:48:35.014Z,931.04
2018-01-06T01:49:47.911Z,931.02
2018-01-06T01:51:01.094Z,931.02
2018-01-06T01:52:14.205Z,931.02
2018-01-06T01:53:27.368Z,931.03
2018-01-06T01:54:40.446Z,931.05
2018-01-06T01:55:53.552Z,931.04
2018-01-06T01:57:06.713Z,931.05
2018-01-06T01:58:19.889Z,931.05
2018-01-06T01:59:32.537Z,931.06
2018-01-06T02:00:45.734Z,930.97
2018-01-06T02:01:58.943Z,931
2018-01-06T02:03:12.091Z,930.98
2018-01-06T02:04:25.195Z,931.01
2018-01-06T02:05:38.333Z,930.96
2018-01-06T02:06:51.514Z,930.95
2018-01-06T02:08:04.645Z,930.93
2018-01-06T02:09:17.730Z,930.88
2018-01-06T02:10:30.885Z,930.84
2018-01-06T02:11:44.019Z,930.84
2018-01-06T02:12:57.219Z,930.91
2018-01-06T02:14:10.337Z,930.86
2018-01-06T02:15:23.239Z,930.84
2018-01-06T02:16:36.414Z,930.84
2018-01-06T02:17:49.548Z,930.84
2018-01-06T02:19:02.164Z,930.79
2018-01-06T02:20:15.260Z,930.76
2018-01-06T02:21:28.366Z,930.8
2018-01-06T02:22:41.054Z,930.81
2018-01-06T02:23:54.155Z,930.81
2018-01-06T02:25:07.297Z,930.81
2018-01-06T02:26:20.458Z,930.83
2018-01-06T02:27:33.341Z,930.83
2018-01-06T02:28:46.501Z,930.83
2018-01-06T02:29:59.636Z,930.87
2018-01-06T02:31:12.723Z,930.83
2018-01-06T02:32:25.949Z,930.81
2018-01-06T02:33:39.091Z,930.78
2018-01-06T02:34:51.766Z,930.78
2018-01-06T02:36:04.987Z,930.76
2018-01-06T02:37:18.174Z,930.74
2018-01-06T02:38:31.344Z,930.72
2018-01-06T02:39:44.550Z,930.74
2018-01-06T02:40:57.225Z,930.73
2018-01-06T02:42:10.447Z,930.75
2018-01-06T02:43:23.599Z,930.7
2018-01-06T02:44:36.715Z,930.65
2018-01-06T02:45:49.892Z,930.67
2018-01-06T02:47:03.067Z,930.63
2018-01-06T02:48:16.227Z,930.58
2018-01-06T02:49:28.872Z,930.54
2018-01-06T02:50:41.973Z,930.53
2018-01-06T02:51:55.079Z,930.51
2018-01-06T02:53:08.204Z,930.5
2018-01-06T02:54:21.272Z,930.48
2018-01-06T02:55:34.001Z,930.43
2018-01-06T02:56:47.195Z,930.42
2018-01-06T02:58:00.305Z,930.39
2018-01-06T02:59:12.900Z,930.37
2018-01-06T03:00:26.063Z,930.34
2018-01-06T03:01:39.121Z,930.36
2018-01-06T03:02:52.245Z,930.31
2018-01-06T03:04:05.080Z,930.32
2018-01-06T03:05:18.212Z,930.36
2018-01-06T03:06:31.304Z,930.34
2018-01-06T03:07:44.531Z,930.39
2018-01-06T03:08:57.646Z,930.4
2018-01-06T03:10:10.756Z,930.33
2018-01-06T03:11:23.942Z,930.36
2018-01-06T03:12:37.155Z,930.33
2018-01-06T03:13:50.287Z,930.36
2018-01-06T03:15:03.374Z,930.33
2018-01-06T03:16:16.282Z,930.32
2018-01-06T03:17:29.462Z,930.26
2018-01-06T03:18:42.538Z,930.32
2018-01-06T03:19:55.123Z,930.27
2018-01-06T03:21:08.264Z,930.32
2018-01-06T03:22:21.352Z,930.3
2018-01-06T03:23:34.052Z,930.32
2018-01-06T03:24:47.215Z,930.33
2018-01-06T03:26:00.388Z,930.33
2018-01-06T03:27:13.549Z,930.31
2018-01-06T03:28:26.640Z,930.27
2018-01-06T03:29:39.750Z,930.28
2018-01-06T03:30:52.896Z,930.28
2018-01-06T03:32:06.062Z,930.31
2018-01-06T03:33:19.213Z,930.26
2018-01-06T03:34:32.304Z,930.32
2018-01-06T03:35:45.478Z,930.29
2018-01-06T03:36:58.595Z,930.28
2018-01-06T03:38:11.728Z,930.28
2018-01-06T03:39:24.366Z,930.28
2018-01-06T03:40:37.512Z,930.26
2018-01-06T03:41:50.690Z,930.26
2018-01-06T03:43:03.818Z,930.26
2018-01-06T03:44:17.003Z,930.25
2018-01-06T03:45:30.089Z,930.25
2018-01-06T03:46:43.268Z,930.21
2018-01-06T03:47:56.464Z,930.22
2018-01-06T03:49:09.568Z,930.21
2018-01-06T03:50:22.129Z,930.13
2018-01-06T03:51:35.203Z,930.15
2018-01-06T03:52:48.298Z,930.13
2018-01-06T03:54:01.363Z,930.14
2018-01-06T03:55:14.389Z,930.13
2018-01-06T03:56:27.426Z,930.1
2018-01-06T03:57:40.491Z,930.08
2018-01-06T03:58:53.544Z,930.05
2018-01-06T04:00:06.547Z,930.02
2018-01-06T04:01:19.584Z,930.03
2018-01-06T04:02:32.555Z,929.99
2018-01-06T04:03:45.613Z,929.99
2018-01-06T04:04:58.417Z,929.96
2018-01-06T04:06:11.466Z,929.98
2018-01-06T04:07:24.494Z,929.98
2018-01-06T04:08:37.489Z,929.97
2018-01-06T04:09:50.545Z,929.96
2018-01-06T04:11:03.591Z,929.94
2018-01-06T04:12:16.554Z,929.94
2018-01-06T04:13:29.590Z,929.95
2018-01-06T04:14:42.598Z,929.94
2018-01-06T04:15:55.618Z,929.92
2018-01-06T04:17:08.691Z,929.91
2018-01-06T04:18:21.764Z,929.86
2018-01-06T04:19:34.811Z,929.87
2018-01-06T04:20:47.825Z,929.85
2018-01-06T04:22:00.878Z,929.86
2018-01-06T04:23:13.893Z,929.9
2018-01-06T04:24:26.939Z,929.91
2018-01-06T04:25:39.986Z,929.93
2018-01-06T04:26:52.959Z,929.92
2018-01-06T04:28:05.989Z,929.9
2018-01-06T04:29:19.002Z,929.91
2018-01-06T04:30:32.029Z,929.86
2018-01-06T04:31:45.072Z,929.86
2018-01-06T04:32:58.089Z,929.83
2018-01-06T04:34:11.139Z,929.84
2018-01-06T04:35:24.179Z,929.79
2018-01-06T04:36:37.246Z,929.8
2018-01-06T04:37:50.257Z,929.77
2018-01-06T04:39:03.245Z,929.75
2018-01-06T04:40:16.236Z,929.75
2018-01-06T04:41:29.220Z,929.74
2018-01-06T04:42:41.798Z,929.68
2018-01-06T04:43:54.838Z,929.7
2018-01-06T04:45:07.830Z,929.73
2018-01-06T04:46:20.886Z,929.74
2018-01-06T04:47:33.970Z,929.75
2018-01-06T04:48:46.989Z,929.7
2018-01-06T04:50:00.044Z,929.7
2018-01-06T04:51:13.131Z,929.71
2018-01-06T04:52:26.169Z,929.69
2018-01-06T04:53:39.239Z,929.67
2018-01-06T04:54:52.282Z,929.67
2018-01-06T04:56:05.325Z,929.58
2018-01-06T04:57:18.354Z,929.62
2018-01-06T04:58:31.392Z,929.61
2018-01-06T04:59:44.476Z,929.59
2018-01-06T05:00:57.532Z,929.56
2018-01-06T05:02:10.556Z,929.52
2018-01-06T05:03:23.150Z,929.5
2018-01-06T05:04:36.146Z,929.46
2018-01-06T05:05:49.197Z,929.47
2018-01-06T05:07:02.194Z,929.42
2018-01-06T05:08:15.260Z,929.44
2018-01-06T05:09:28.348Z,929.43
2018-01-06T05:10:41.394Z,929.42
2018-01-06T05:11:54.431Z,929.46
2018-01-06T05:13:07.447Z,929.5
2018-01-06T05:14:20.457Z,929.45
2018-01-06T05:15:33.443Z,929.44
2018-01-06T05:16:46.454Z,929.45
2018-01-06T05:17:59.494Z,929.38
2018-01-06T05:19:12.514Z,929.39
2018-01-06T05:20:25.539Z,929.36
2018-01-06T05:21:38.532Z,929.37
2018-01-06T05:22:51.551Z,929.39
2018-01-06T05:24:04.539Z,929.34
2018-01-06T05:25:17.597Z,929.38
2018-01-06T05:26:30.656Z,929.36
2018-01-06T05:27:43.264Z,929.33
2018-01-06T05:28:56.293Z,929.37
2018-01-06T05:30:09.270Z,929.36
2018-01-06T05:31:22.308Z,929.35
2018-01-06T05:32:35.392Z,929.32
2018-01-06T05:33:48.462Z,929.3
2018-01-06T05:35:01.051Z,929.3
2018-01-06T05:36:14.095Z,929.28
2018-01-06T05:37:27.064Z,929.28
2018-01-06T05:38:40.099Z,929.29
2018-01-06T05:39:53.134Z,929.28
2018-01-06T05:41:06.246Z,929.26
2018-01-06T05:42:19.329Z,929.3
2018-01-06T05:43:32.389Z,929.28
2018-01-06T05:44:45.424Z,929.28
2018-01-06T05:45:58.465Z,929.31
2018-01-06T05:47:11.474Z,929.3
2018-01-06T05:48:24.494Z,929.3
2018-01-06T05:49:37.488Z,929.27
2018-01-06T05:50:50.518Z,929.29
2018-01-06T05:52:03.311Z,929.3
2018-01-06T05:53:15.910Z,929.25
2018-01-06T05:54:28.485Z,929.25
2018-01-06T05:55:41.511Z,929.26
2018-01-06T05:56:54.516Z,929.28
2018-01-06T05:58:07.577Z,929.26
2018-01-06T05:59:20.615Z,929.2
2018-01-06T06:00:33.682Z,929.19
2018-01-06T06:01:46.303Z,929.18
2018-01-06T06:02:59.081Z,929.17
2018-01-06T06:04:12.090Z,929.21
2018-01-06T06:05:25.110Z,929.17
2018-01-06T06:06:38.177Z,929.16
2018-01-06T06:07:51.222Z,929.12
2018-01-06T06:09:04.255Z,929.11
2018-01-06T06:10:17.323Z,929.06
2018-01-06T06:11:30.304Z,929.07
2018-01-06T06:12:43.407Z,929.11
2018-01-06T06:13:56.410Z,929.11
2018-01-06T06:15:09.445Z,929.09
2018-01-06T06:16:22.483Z,929.09
2018-01-06T06:17:35.507Z,929.09
2018-01-06T06:18:48.507Z,929.09
2018-01-06T06:20:01.488Z,929.09
2018-01-06T06:21:14.505Z,929.11
2018-01-06T06:22:27.069Z,929.1
2018-01-06T06:23:40.101Z,929.12
2018-01-06T06:24:53.112Z,929.13
2018-01-06T06:26:06.142Z,929.16
2018-01-06T06:27:19.158Z,929.17
2018-01-06T06:28:32.155Z,929.19
2018-01-06T06:29:44.261Z,929.17
2018-01-06T06:30:57.335Z,929.16
2018-01-06T06:32:10.376Z,929.18
2018-01-06T06:35:07.177Z,929.16
2018-01-06T06:36:20.240Z,929.14
2018-01-06T06:37:33.244Z,929.14
2018-01-06T06:38:46.237Z,929.16
2018-01-06T06:39:59.235Z,929.12
2018-01-06T06:41:11.746Z,929.17
2018-01-06T06:42:24.335Z,929.16
2018-01-06T06:43:37.365Z,929.14
2018-01-06T06:44:50.356Z,929.13
2018-01-06T06:46:03.400Z,929.12
2018-01-06T06:47:16.518Z,929.12
2018-01-06T06:48:29.093Z,929.1
2018-01-06T06:49:42.122Z,929.11
2018-01-06T06:50:54.659Z,929.13
2018-01-06T06:52:07.705Z,929.1
2018-01-06T06:53:20.723Z,929.1
2018-01-06T06:54:33.743Z,929.12
2018-01-06T06:55:46.816Z,929.08
2018-01-06T06:56:59.848Z,929.11
2018-01-06T06:58:12.905Z,929.09
2018-01-06T06:59:25.940Z,929.13
2018-01-06T07:00:39.019Z,929.12
2018-01-06T07:01:52.005Z,929.09
2018-01-06T07:03:05.012Z,929.11
2018-01-06T07:04:18.026Z,929.07
2018-01-06T07:05:30.653Z,929.08
2018-01-06T07:06:43.698Z,929.05
2018-01-06T07:07:56.704Z,929.05
2018-01-06T07:09:09.748Z,929.04
2018-01-06T07:10:22.298Z,929.07
2018-01-06T07:11:35.372Z,929.12
2018-01-06T07:12:48.596Z,929.12
2018-01-06T07:14:01.614Z,929.09
2018-01-06T07:15:14.609Z,929.07
2018-01-06T07:16:27.661Z,929.09
2018-01-06T07:17:40.690Z,929.07
2018-01-06T07:18:53.747Z,929.1
2018-01-06T07:20:06.804Z,929.07
2018-01-06T07:21:19.859Z,929.11
2018-01-06T07:22:32.840Z,929.14
2018-01-06T07:23:45.847Z,929.09
2018-01-06T07:24:58.892Z,929.13
2018-01-06T07:26:11.856Z,929.13
2018-01-06T07:27:24.884Z,929.14
2018-01-06T07:28:37.915Z,929.14
2018-01-06T07:29:50.473Z,929.14
2018-01-06T07:31:03.448Z,929.17
2018-01-06T07:32:16.500Z,929.18
2018-01-06T07:33:29.511Z,929.2
2018-01-06T07:34:42.524Z,929.14
2018-01-06T07:35:55.534Z,929.16
2018-01-06T07:37:08.565Z,929.09
2018-01-06T07:38:21.568Z,929.09
2018-01-06T07:39:34.607Z,929.06
2018-01-06T07:40:47.633Z,929.07
2018-01-06T07:42:00.724Z,929.13
2018-01-06T07:43:13.713Z,929.12
2018-01-06T07:44:26.717Z,929.13
2018-01-06T07:45:39.800Z,929.17
2018-01-06T07:46:52.810Z,929.19
2018-01-06T07:48:05.810Z,929.19
2018-01-06T07:49:18.377Z,929.15
2018-01-06T07:50:31.462Z,929.17
2018-01-06T07:51:44.538Z,929.19
2018-01-06T07:52:57.600Z,929.25
2018-01-06T07:54:10.686Z,929.23
2018-01-06T07:55:23.732Z,929.24
2018-01-06T07:56:36.751Z,929.27
2018-01-06T07:57:49.758Z,929.27
2018-01-06T07:59:02.765Z,929.27
2018-01-06T08:00:15.541Z,929.29
2018-01-06T08:01:28.576Z,929.3
2018-01-06T08:02:41.638Z,929.29
2018-01-06T08:03:54.653Z,929.34
2018-01-06T08:05:07.666Z,929.36
2018-01-06T08:06:20.671Z,929.42
2018-01-06T08:07:33.655Z,929.4
2018-01-06T08:08:46.682Z,929.37
2018-01-06T08:09:59.702Z,929.42
2018-01-06T08:11:12.745Z,929.46
2018-01-06T08:12:25.569Z,929.45
2018-01-06T08:13:38.388Z,929.43
2018-01-06T08:14:50.925Z,929.49
2018-01-06T08:16:03.933Z,929.5
2018-01-06T08:17:16.915Z,929.5
2018-01-06T08:18:29.954Z,929.48
2018-01-06T08:19:42.978Z,929.51
2018-01-06T08:20:56.035Z,929.52
2018-01-06T08:22:09.074Z,929.55
2018-01-06T08:23:22.138Z,929.56
2018-01-06T08:24:35.177Z,929.64
2018-01-06T08:25:48.197Z,929.62
2018-01-06T08:27:01.253Z,929.73
2018-01-06T08:28:14.274Z,929.69
2018-01-06T08:29:27.337Z,929.67
2018-01-06T08:30:40.423Z,929.67
2018-01-06T08:31:53.466Z,929.64
2018-01-06T08:33:06.507Z,929.65
2018-01-06T08:34:19.571Z,929.66
2018-01-06T08:35:32.613Z,929.67
2018-01-06T08:36:45.654Z,929.68
2018-01-06T08:37:58.680Z,929.67
2018-01-06T08:39:11.700Z,929.65
2018-01-06T08:40:24.315Z,929.68
2018-01-06T08:41:37.304Z,929.7
2018-01-06T08:42:50.375Z,929.72
2018-01-06T08:44:03.383Z,929.67
2018-01-06T08:45:16.456Z,929.67
2018-01-06T08:46:29.502Z,929.72
2018-01-06T08:47:42.549Z,929.72
2018-01-06T08:48:55.598Z,929.76
2018-01-06T08:50:08.622Z,929.77
2018-01-06T08:51:21.693Z,929.81
2018-01-06T08:52:34.709Z,929.82
2018-01-06T08:53:47.827Z,929.85
2018-01-06T08:55:00.830Z,929.91
2018-01-06T08:56:13.853Z,929.97
2018-01-06T08:57:26.849Z,929.99
2018-01-06T09:00:24.033Z,930.03
2018-01-06T09:01:37.071Z,930.06
2018-01-06T09:02:50.121Z,930.13
2018-01-06T09:04:03.137Z,930.15
2018-01-06T09:05:15.917Z,930.13
2018-01-06T09:06:28.943Z,930.18
2018-01-06T09:07:42.032Z,930.19
2018-01-06T09:08:54.583Z,930.24
2018-01-06T09:10:07.603Z,930.2
2018-01-06T09:11:20.661Z,930.21
2018-01-06T09:12:33.651Z,930.23
2018-01-06T09:13:46.680Z,930.24
2018-01-06T09:14:59.738Z,930.28
2018-01-06T09:16:12.799Z,930.3
2018-01-06T09:17:25.774Z,930.32
2018-01-06T09:18:38.860Z,930.34
2018-01-06T09:19:51.887Z,930.35
2018-01-06T09:21:04.925Z,930.38
2018-01-06T09:22:17.958Z,930.34
2018-01-06T09:23:30.992Z,930.34
2018-01-06T09:24:44.012Z,930.39
2018-01-06T09:25:56.557Z,930.38
2018-01-06T09:27:09.563Z,930.35
2018-01-06T09:28:22.608Z,930.4
2018-01-06T09:29:35.585Z,930.41
2018-01-06T09:30:48.668Z,930.45
2018-01-06T09:32:01.716Z,930.42
2018-01-06T09:33:14.710Z,930.46
2018-01-06T09:34:27.760Z,930.48
2018-01-06T09:35:40.786Z,930.47
2018-01-06T09:36:53.820Z,930.48
2018-01-06T09:38:06.884Z,930.45
2018-01-06T09:39:19.913Z,930.44
2018-01-06T09:40:32.905Z,930.45
2018-01-06T09:41:45.692Z,930.48
2018-01-06T09:42:58.791Z,930.49
2018-01-06T09:44:11.824Z,930.52
2018-01-06T09:45:24.889Z,930.55
2018-01-06T09:46:37.952Z,930.59
2018-01-06T09:47:50.978Z,930.6
2018-01-06T09:49:04.022Z,930.56
2018-01-06T09:50:17.129Z,930.58
2018-01-06T09:51:30.250Z,930.5
2018-01-06T09:52:43.298Z,930.59
2018-01-06T09:53:56.341Z,930.57
2018-01-06T09:55:09.394Z,930.58
2018-01-06T09:56:22.418Z,930.63
2018-01-06T09:57:35.467Z,930.6
2018-01-06T09:58:48.040Z,930.62
2018-01-06T10:00:01.093Z,930.62
2018-01-06T10:01:14.102Z,930.66
2018-01-06T10:02:26.891Z,930.64
2018-01-06T10:03:39.943Z,930.61
2018-01-06T10:04:53.012Z,930.65
2018-01-06T10:06:06.036Z,930.66
2018-01-06T10:07:19.100Z,930.65
2018-01-06T10:08:32.118Z,930.69
2018-01-06T10:09:45.155Z,930.71
2018-01-06T10:10:58.225Z,930.68
2018-01-06T10:12:11.298Z,930.74
2018-01-06T10:13:23.956Z,930.73
2018-01-06T10:14:37.019Z,930.78
2018-01-06T10:15:49.869Z,930.77
2018-01-06T10:17:02.892Z,930.79
2018-01-06T10:18:15.950Z,930.78
2018-01-06T10:19:28.930Z,930.82
2018-01-06T10:20:41.906Z,930.81
2018-01-06T10:21:54.919Z,930.83
2018-01-06T10:23:07.985Z,930.79
2018-01-06T10:24:21.012Z,930.82
2018-01-06T10:25:34.040Z,930.84
2018-01-06T10:26:47.108Z,930.79
2018-01-06T10:28:00.192Z,930.83
2018-01-06T10:29:13.215Z,930.82
2018-01-06T10:30:26.239Z,930.8
2018-01-06T10:31:39.249Z,930.81
2018-01-06T10:32:52.266Z,930.81
2018-01-06T10:34:04.803Z,930.83
2018-01-06T10:35:17.840Z,930.81
2018-01-06T10:36:30.403Z,930.83
2018-01-06T10:37:43.436Z,930.8
2018-01-06T10:38:56.517Z,930.79
2018-01-06T10:40:09.517Z,930.81
2018-01-06T10:41:22.623Z,930.78
2018-01-06T10:42:35.644Z,930.77
2018-01-06T10:43:48.647Z,930.8
2018-01-06T10:45:01.760Z,930.82
2018-01-06T10:46:14.800Z,930.83
2018-01-06T10:47:27.809Z,930.83
2018-01-06T10:48:40.787Z,930.81
2018-01-06T10:49:53.817Z,930.81
2018-01-06T10:51:06.888Z,930.79
2018-01-06T10:52:19.526Z,930.76
2018-01-06T10:53:32.680Z,930.8
2018-01-06T10:54:45.682Z,930.81
2018-01-06T10:55:58.716Z,930.8
2018-01-06T10:57:11.749Z,930.82
2018-01-06T10:58:24.778Z,930.83
2018-01-06T10:59:37.844Z,930.84
2018-01-06T11:00:50.924Z,930.89
2018-01-06T11:02:03.943Z,930.87
2018-01-06T11:03:16.912Z,930.87
2018-01-06T11:04:29.968Z,930.88
2018-01-06T11:05:42.963Z,930.89
2018-01-06T11:06:55.998Z,930.91
2018-01-06T11:08:09.050Z,930.93
2018-01-06T11:09:22.117Z,930.9
2018-01-06T11:10:35.167Z,930.9
2018-01-06T11:11:48.166Z,930.95
2018-01-06T11:13:01.234Z,930.95
2018-01-06T11:14:14.331Z,930.93
2018-01-06T11:15:27.370Z,930.93
2018-01-06T11:16:40.420Z,930.95
2018-01-06T11:17:53.417Z,930.93
2018-01-06T11:19:06.483Z,930.89
2018-01-06T11:20:19.675Z,930.89
2018-01-06T11:21:32.254Z,930.91
2018-01-06T11:22:45.062Z,930.92
2018-01-06T11:23:58.085Z,930.91
2018-01-06T11:25:11.072Z,930.98
2018-01-06T11:26:24.060Z,930.94
2018-01-06T11:27:37.090Z,930.92
2018-01-06T11:28:50.098Z,930.86
2018-01-06T11:30:03.173Z,930.92
2018-01-06T11:31:16.223Z,930.9
2018-01-06T11:32:29.235Z,930.88
2018-01-06T11:33:42.047Z,930.89
2018-01-06T11:34:55.085Z,930.92
2018-01-06T11:36:08.172Z,930.87
2018-01-06T11:37:21.240Z,930.9
2018-01-06T11:38:34.350Z,930.92
2018-01-06T11:39:47.380Z,930.97
2018-01-06T11:41:00.447Z,930.98
2018-01-06T11:42:13.518Z,930.96
2018-01-06T11:43:26.552Z,930.92
2018-01-06T11:44:39.543Z,930.87
2018-01-06T11:45:52.614Z,930.88
2018-01-06T11:47:05.696Z,930.85
2018-01-06T11:48:18.819Z,930.84
2018-01-06T11:49:31.892Z,930.82
2018-01-06T11:50:44.936Z,930.82
2018-01-06T11:51:57.908Z,930.81
2018-01-06T11:53:11.016Z,930.82
2018-01-06T11:54:24.048Z,930.76
2018-01-06T11:55:37.083Z,930.79
2018-01-06T11:56:49.732Z,930.84
2018-01-06T11:58:02.278Z,930.72
2018-01-06T11:59:15.284Z,930.76
2018-01-06T12:00:28.308Z,930.75
2018-01-06T12:01:41.298Z,930.78
2018-01-06T12:02:54.345Z,930.79
2018-01-06T12:04:07.170Z,930.75
2018-01-06T12:05:20.199Z,930.79
2018-01-06T12:06:33.233Z,930.89
2018-01-06T12:07:46.364Z,930.78
2018-01-06T12:08:59.369Z,930.85
2018-01-06T12:10:12.421Z,930.84
2018-01-06T12:11:25.493Z,930.87
2018-01-06T12:12:38.513Z,930.8
2018-01-06T12:13:51.534Z,930.81
2018-01-06T12:15:04.606Z,930.77
2018-01-06T12:16:17.595Z,930.81
2018-01-06T12:17:30.620Z,930.84
2018-01-06T12:18:43.714Z,930.82
2018-01-06T12:19:56.737Z,930.79
2018-01-06T12:21:09.323Z,930.86
2018-01-06T12:22:22.381Z,930.86
2018-01-06T12:23:35.420Z,930.83
2018-01-06T12:24:48.462Z,930.96
2018-01-06T12:26:01.467Z,930.83
2018-01-06T12:27:14.495Z,930.85
2018-01-06T12:28:27.548Z,930.88
2018-01-06T12:29:40.401Z,930.87
2018-01-06T12:30:53.409Z,930.88
2018-01-06T12:32:06.201Z,930.81
2018-01-06T12:33:19.189Z,930.93
2018-01-06T12:34:32.205Z,930.96
2018-01-06T12:35:45.191Z,931.07
2018-01-06T12:36:58.210Z,930.97
2018-01-06T12:38:11.189Z,931.03
2018-01-06T12:39:24.228Z,930.94
2018-01-06T12:40:37.274Z,930.92
2018-01-06T12:41:50.352Z,930.81
2018-01-06T12:43:03.378Z,930.89
2018-01-06T12:44:16.404Z,930.84
2018-01-06T12:45:29.377Z,930.88
2018-01-06T12:46:42.445Z,930.88
2018-01-06T12:47:55.018Z,930.96
2018-01-06T12:49:08.086Z,930.91
2018-01-06T12:50:21.126Z,930.94
2018-01-06T12:51:34.135Z,930.91
2018-01-06T12:52:46.229Z,930.88
2018-01-06T12:53:59.247Z,930.94
2018-01-06T12:55:12.248Z,930.85
2018-01-06T12:56:25.214Z,930.88
2018-01-06T12:57:38.309Z,930.89
2018-01-06T12:58:50.921Z,930.88
2018-01-06T13:00:03.924Z,930.87
2018-01-06T13:01:16.979Z,930.88
2018-01-06T13:02:30.024Z,930.89
2018-01-06T13:03:43.072Z,930.87
2018-01-06T13:04:56.134Z,930.89
2018-01-06T13:06:09.190Z,930.87
2018-01-06T13:07:22.267Z,930.76
2018-01-06T13:08:35.301Z,930.86
2018-01-06T13:09:48.361Z,930.82
2018-01-06T13:11:01.425Z,930.79
2018-01-06T13:12:14.460Z,930.77
2018-01-06T13:13:27.475Z,930.78
2018-01-06T13:14:40.506Z,930.8
2018-01-06T13:15:53.510Z,930.76
2018-01-06T13:17:06.497Z,930.81
2018-01-06T13:18:19.538Z,930.75
2018-01-06T13:19:32.627Z,930.75
2018-01-06T13:20:45.754Z,930.77
2018-01-06T13:21:58.840Z,930.83
2018-01-06T13:23:11.463Z,930.75
2018-01-06T13:24:24.480Z,930.79
2018-01-06T13:25:37.495Z,930.73
2018-01-06T13:26:50.579Z,930.77
2018-01-06T13:28:03.380Z,930.73
2018-01-06T13:29:16.447Z,930.73
2018-01-06T13:30:29.266Z,930.84
2018-01-06T13:31:42.313Z,930.87
2018-01-06T13:32:55.376Z,930.75
2018-01-06T13:34:08.468Z,930.78
2018-01-06T13:35:21.499Z,930.76
2018-01-06T13:36:34.551Z,930.71
2018-01-06T13:37:47.569Z,930.71
2018-01-06T13:39:00.163Z,930.63
2018-01-06T13:40:13.194Z,930.65
2018-01-06T13:41:25.783Z,930.75
2018-01-06T13:42:38.844Z,930.72
2018-01-06T13:43:51.888Z,930.76
2018-01-06T13:45:04.923Z,930.69
2018-01-06T13:46:17.944Z,930.64
2018-01-06T13:47:30.975Z,930.76
2018-01-06T13:48:44.013Z,930.75
2018-01-06T13:49:56.875Z,930.66
2018-01-06T13:51:09.927Z,930.67
2018-01-06T13:52:22.992Z,930.67
2018-01-06T13:53:36.070Z,930.64
2018-01-06T13:54:49.109Z,930.73
2018-01-06T13:56:02.154Z,930.71
2018-01-06T13:57:15.295Z,930.74
2018-01-06T13:58:28.309Z,930.72
2018-01-06T13:59:41.410Z,930.78
2018-01-06T14:00:54.420Z,930.78
2018-01-06T14:02:07.438Z,930.76
2018-01-06T14:03:20.483Z,930.81
2018-01-06T14:04:33.035Z,930.68
2018-01-06T14:05:46.088Z,930.72
2018-01-06T14:06:59.180Z,930.77
2018-01-06T14:08:12.225Z,930.63
2018-01-06T14:09:25.297Z,930.67
2018-01-06T14:10:37.892Z,930.6
2018-01-06T14:11:50.984Z,930.77
2018-01-06T14:13:04.026Z,930.62
2018-01-06T14:14:17.074Z,930.76
2018-01-06T14:15:30.097Z,930.66
2018-01-06T14:16:43.132Z,930.61
2018-01-06T14:17:56.140Z,930.63
2018-01-06T14:19:09.177Z,930.61
2018-01-06T14:20:21.741Z,930.54
2018-01-06T14:21:34.755Z,930.63
2018-01-06T14:22:47.350Z,930.65
2018-01-06T14:24:00.441Z,930.54
2018-01-06T14:25:13.477Z,930.56
2018-01-06T14:26:26.472Z,930.63
2018-01-06T14:27:39.490Z,930.57
2018-01-06T14:28:52.530Z,930.51
2018-01-06T14:30:05.554Z,930.54
2018-01-06T14:31:18.601Z,930.52
2018-01-06T14:32:31.442Z,930.47
2018-01-06T14:33:44.481Z,930.5
2018-01-06T14:34:57.553Z,930.46
2018-01-06T14:36:10.558Z,930.5
2018-01-06T14:37:23.546Z,930.5
2018-01-06T14:38:41.917Z,930.45
2018-01-06T14:39:54.958Z,930.41
2018-01-06T14:41:08.017Z,930.43
2018-01-06T14:42:21.050Z,930.45
2018-01-06T14:43:34.074Z,930.44
2018-01-06T14:44:47.139Z,930.4
2018-01-06T14:46:00.257Z,930.34
2018-01-06T14:47:13.298Z,930.37
2018-01-06T14:48:26.285Z,930.33
2018-01-06T14:49:39.255Z,930.43
2018-01-06T14:50:52.301Z,930.4
2018-01-06T14:52:05.426Z,930.36
2018-01-06T14:53:18.485Z,930.34
2018-01-06T14:54:31.543Z,930.34
2018-01-06T14:55:44.585Z,930.33
2018-01-06T14:56:57.575Z,930.29
2018-01-06T14:58:10.563Z,930.26
2018-01-06T14:59:23.359Z,930.23
2018-01-06T15:00:36.408Z,930.25
2018-01-06T15:01:49.484Z,930.28
2018-01-06T15:03:02.486Z,930.21
2018-01-06T15:04:15.503Z,930.21
2018-01-06T15:05:28.590Z,930.12
2018-01-06T15:06:41.655Z,930.18
2018-01-06T15:07:54.714Z,930.2
2018-01-06T15:09:07.775Z,930.13
2018-01-06T15:10:20.812Z,930.13
2018-01-06T15:11:33.440Z,930.17
2018-01-06T15:12:46.486Z,930.18
2018-01-06T15:13:59.561Z,930.13
2018-01-06T15:15:12.612Z,930.19
2018-01-06T15:16:25.634Z,930.14
2018-01-06T15:17:38.690Z,930.1
2018-01-06T15:18:51.717Z,930.12